createdAt,value
2023-01-08T00:01:38.247Z,43.80
2023-01-08T00:04:06.785Z,43.80
2023-01-08T00:06:36.284Z,43.70
2023-01-08T00:09:04.360Z,43.60
2023-01-08T00:11:32.383Z,43.60
2023-01-08T00:14:00.433Z,43.40
2023-01-08T00:16:28.651Z,43.30
2023-01-08T00:18:56.990Z,43.20
2023-01-08T00:21:25.011Z,43.10
2023-01-08T00:23:54.426Z,43.10
2023-01-08T00:26:22.573Z,43.10
2023-01-08T00:28:50.533Z,43.00
2023-01-08T00:31:18.557Z,43.00
2023-01-08T00:33:46.598Z,42.90
2023-01-08T00:36:15.612Z,42.80
2023-01-08T00:38:43.778Z,42.80
2023-01-08T00:41:13.144Z,42.80
2023-01-08T00:43:41.132Z,42.60
2023-01-08T00:46:09.335Z,42.60
2023-01-08T00:48:38.773Z,43.10
2023-01-08T00:51:07.379Z,42.40
2023-01-08T00:53:35.374Z,42.30
2023-01-08T00:56:03.476Z,42.10
2023-01-08T00:58:32.824Z,42.20
2023-01-08T01:01:00.896Z,42.10
2023-01-08T01:03:29.027Z,42.10
2023-01-08T01:06:03.046Z,42.10
2023-01-08T01:08:31.107Z,42.20
2023-01-08T01:10:59.119Z,42.10
2023-01-08T01:13:27.113Z,42.10
2023-01-08T01:15:59.810Z,42.10
2023-01-08T01:18:28.031Z,42.20
2023-01-08T01:20:56.059Z,42.20
2023-01-08T01:23:24.043Z,42.30
2023-01-08T01:25:52.065Z,42.30
2023-01-08T01:28:20.067Z,42.30
2023-01-08T01:30:53.935Z,42.40
2023-01-08T01:33:23.391Z,42.30
2023-01-08T01:35:59.783Z,42.30
2023-01-08T01:38:27.814Z,42.30
2023-01-08T01:40:55.744Z,42.20
2023-01-08T01:43:37.374Z,42.10
2023-01-08T01:46:06.522Z,42.10
2023-01-08T01:48:35.922Z,41.90
2023-01-08T01:51:04.020Z,42.50
2023-01-08T01:53:33.088Z,41.70
2023-01-08T01:56:01.082Z,41.60
2023-01-08T01:58:30.067Z,41.50
2023-01-08T02:00:59.056Z,41.50
2023-01-08T02:03:28.151Z,41.40
2023-01-08T02:06:01.003Z,41.30
2023-01-08T02:08:32.056Z,41.20
2023-01-08T02:11:02.570Z,41.20
2023-01-08T02:13:32.538Z,41.10
2023-01-08T02:16:03.701Z,41.00
2023-01-08T02:18:34.211Z,40.90
2023-01-08T02:21:06.014Z,40.90
2023-01-08T02:23:38.234Z,40.80
2023-01-08T02:26:10.202Z,40.90
2023-01-08T02:28:39.574Z,40.80
2023-01-08T02:31:07.680Z,40.80
2023-01-08T02:33:35.684Z,40.90
2023-01-08T02:36:25.420Z,40.90
2023-01-08T02:38:59.272Z,41.00
2023-01-08T02:41:32.482Z,41.00
2023-01-08T02:44:00.506Z,41.10
2023-01-08T02:46:29.246Z,41.10
2023-01-08T02:48:59.755Z,41.20
2023-01-08T02:51:29.852Z,41.20
2023-01-08T02:54:00.090Z,41.20
2023-01-08T02:56:31.152Z,41.40
2023-01-08T02:58:59.151Z,41.40
2023-01-08T03:01:27.590Z,41.40
2023-01-08T03:03:59.361Z,41.50
2023-01-08T03:06:28.805Z,41.50
2023-01-08T03:08:56.778Z,41.60
2023-01-08T03:11:25.077Z,41.70
2023-01-08T03:13:58.083Z,41.70
2023-01-08T03:16:29.790Z,41.70
2023-01-08T03:19:00.833Z,41.80
2023-01-08T03:21:28.793Z,41.90
2023-01-08T03:23:56.739Z,41.90
2023-01-08T03:26:26.320Z,41.90
2023-01-08T03:28:56.270Z,41.90
2023-01-08T03:31:24.569Z,42.00
2023-01-08T03:33:52.813Z,42.00
2023-01-08T03:36:22.574Z,42.00
2023-01-08T03:38:52.539Z,42.00
2023-01-08T03:41:20.946Z,42.10
2023-01-08T03:43:48.918Z,42.00
2023-01-08T03:46:20.143Z,42.00
2023-01-08T03:48:48.140Z,42.10
2023-01-08T03:51:16.103Z,42.10
2023-01-08T03:53:44.093Z,42.10
2023-01-08T03:56:12.044Z,42.10
2023-01-08T03:58:40.014Z,42.80
2023-01-08T04:01:08.078Z,42.80
2023-01-08T04:03:38.297Z,42.20
2023-01-08T04:06:06.637Z,42.20
2023-01-08T04:08:34.624Z,42.10
2023-01-08T04:11:02.596Z,42.20
2023-01-08T04:13:30.617Z,42.30
2023-01-08T04:15:59.208Z,42.20
2023-01-08T04:18:27.202Z,42.20
2023-01-08T04:20:56.553Z,42.10
2023-01-08T04:23:24.596Z,42.20
2023-01-08T04:25:52.610Z,42.30
2023-01-08T04:28:20.610Z,42.30
2023-01-08T04:30:48.615Z,42.30
2023-01-08T04:33:16.620Z,42.30
2023-01-08T04:35:44.623Z,42.30
2023-01-08T04:38:13.995Z,43.00
2023-01-08T04:40:41.993Z,42.30
2023-01-08T04:43:09.970Z,42.30
2023-01-08T04:45:37.940Z,42.30
2023-01-08T04:48:06.284Z,42.40
2023-01-08T04:50:34.231Z,42.40
2023-01-08T04:53:02.211Z,42.40
2023-01-08T04:55:31.527Z,42.30
2023-01-08T04:57:59.515Z,42.40
2023-01-08T05:00:27.576Z,42.40
2023-01-08T05:02:56.070Z,42.40
2023-01-08T05:05:24.171Z,42.40
2023-01-08T05:07:52.196Z,42.40
2023-01-08T05:10:20.189Z,42.40
2023-01-08T05:12:49.531Z,42.50
2023-01-08T05:15:17.649Z,42.40
2023-01-08T05:17:45.675Z,42.40
2023-01-08T05:20:13.648Z,42.50
2023-01-08T05:22:41.714Z,42.50
2023-01-08T05:25:10.275Z,42.50
2023-01-08T05:27:38.231Z,42.50
2023-01-08T05:30:09.191Z,42.50
2023-01-08T05:32:37.178Z,42.60
2023-01-08T05:35:05.582Z,42.50
2023-01-08T05:37:35.516Z,42.50
2023-01-08T05:40:03.539Z,42.60
2023-01-08T05:42:31.554Z,42.60
2023-01-08T05:44:59.576Z,42.60
2023-01-08T05:47:30.827Z,42.60
2023-01-08T05:49:59.117Z,42.60
2023-01-08T05:52:27.118Z,42.60
2023-01-08T05:54:55.076Z,42.60
2023-01-08T05:57:23.065Z,42.70
2023-01-08T05:59:51.049Z,42.70
2023-01-08T06:02:19.037Z,42.70
2023-01-08T06:04:49.673Z,42.60
2023-01-08T06:07:17.640Z,42.70
2023-01-08T06:09:45.632Z,42.70
2023-01-08T06:12:13.684Z,42.70
2023-01-08T06:14:41.657Z,42.80
2023-01-08T06:17:09.632Z,42.80
2023-01-08T06:19:39.293Z,42.70
2023-01-08T06:22:08.673Z,42.70
2023-01-08T06:24:36.615Z,43.30
2023-01-08T06:27:04.640Z,42.80
2023-01-08T06:29:32.612Z,42.80
2023-01-08T06:32:00.603Z,42.80
2023-01-08T06:34:28.615Z,42.80
2023-01-08T06:36:56.611Z,42.80
2023-01-08T06:39:25.954Z,42.80
2023-01-08T06:41:53.945Z,42.80
2023-01-08T06:44:21.920Z,42.80
2023-01-08T06:46:49.900Z,42.80
2023-01-08T06:49:18.025Z,42.80
2023-01-08T06:51:46.024Z,42.80
2023-01-08T06:54:13.975Z,42.80
2023-01-08T06:56:53.356Z,42.90
2023-01-08T06:59:22.159Z,42.80
2023-01-08T07:01:50.918Z,42.90
2023-01-08T07:04:19.091Z,43.50
2023-01-08T07:06:47.312Z,42.90
2023-01-08T07:09:15.358Z,42.90
2023-01-08T07:11:44.680Z,42.90
2023-01-08T07:14:12.696Z,42.90
2023-01-08T07:16:40.616Z,42.90
2023-01-08T07:19:08.599Z,42.90
2023-01-08T07:21:36.777Z,42.90
2023-01-08T07:24:05.237Z,42.90
2023-01-08T07:26:33.448Z,42.90
2023-01-08T07:29:02.920Z,42.90
2023-01-08T07:31:30.997Z,42.90
2023-01-08T07:33:59.002Z,42.90
2023-01-08T07:36:26.999Z,42.80
2023-01-08T07:38:54.959Z,42.90
2023-01-08T07:41:22.949Z,42.90
2023-01-08T07:43:51.151Z,42.80
2023-01-08T07:46:20.455Z,42.90
2023-01-08T07:48:48.418Z,42.90
2023-01-08T07:51:16.421Z,42.90
2023-01-08T07:53:44.371Z,42.90
2023-01-08T07:56:12.419Z,42.90
2023-01-08T07:58:40.594Z,42.90
2023-01-08T08:01:09.819Z,43.00
2023-01-08T08:03:39.303Z,43.00
2023-01-08T08:06:08.317Z,42.90
2023-01-08T08:08:36.314Z,43.00
2023-01-08T08:11:04.307Z,43.00
2023-01-08T08:13:32.375Z,43.00
2023-01-08T08:16:03.081Z,43.00
2023-01-08T08:18:31.047Z,43.00
2023-01-08T08:21:00.649Z,42.90
2023-01-08T08:23:28.612Z,42.90
2023-01-08T08:25:56.618Z,43.00
2023-01-08T08:28:24.873Z,43.00
2023-01-08T08:30:52.987Z,43.00
2023-01-08T08:33:21.005Z,43.00
2023-01-08T08:35:52.065Z,43.00
2023-01-08T08:38:23.882Z,43.00
2023-01-08T08:40:52.341Z,43.10
2023-01-08T08:43:20.307Z,43.00
2023-01-08T08:45:48.278Z,43.10
2023-01-08T08:48:17.274Z,43.00
2023-01-08T08:50:45.260Z,43.00
2023-01-08T08:53:13.262Z,43.00
2023-01-08T08:55:42.769Z,43.70
2023-01-08T08:58:11.906Z,43.10
2023-01-08T09:00:39.991Z,43.00
2023-01-08T09:03:08.443Z,42.90
2023-01-08T09:05:38.072Z,43.00
2023-01-08T09:08:06.240Z,43.10
2023-01-08T09:10:34.375Z,43.00
2023-01-08T09:13:03.724Z,43.00
2023-01-08T09:15:31.681Z,43.10
2023-01-08T09:17:59.928Z,43.00
2023-01-08T09:20:27.957Z,43.00
2023-01-08T09:22:55.977Z,43.00
2023-01-08T09:25:24.012Z,43.10
2023-01-08T09:27:59.281Z,43.10
2023-01-08T09:30:28.776Z,43.00
2023-01-08T09:33:02.213Z,43.20
2023-01-08T09:35:30.766Z,43.10
2023-01-08T09:37:58.827Z,43.10
2023-01-08T09:40:28.020Z,43.80
2023-01-08T09:42:57.102Z,43.10
2023-01-08T09:45:29.130Z,43.10
2023-01-08T09:47:57.918Z,43.20
2023-01-08T09:50:26.085Z,43.10
2023-01-08T09:52:54.100Z,43.10
2023-01-08T09:55:22.249Z,43.10
2023-01-08T09:57:50.247Z,43.10
2023-01-08T10:00:20.282Z,43.20
2023-01-08T10:02:49.859Z,43.20
2023-01-08T10:05:18.806Z,43.10
2023-01-08T10:07:47.022Z,43.20
2023-01-08T10:10:19.700Z,43.20
2023-01-08T10:12:47.718Z,43.20
2023-01-08T10:15:16.757Z,43.20
2023-01-08T10:17:47.251Z,43.20
2023-01-08T10:20:17.762Z,43.20
2023-01-08T10:22:47.944Z,43.20
2023-01-08T10:25:17.031Z,43.20
2023-01-08T10:27:48.811Z,43.20
2023-01-08T10:30:18.136Z,43.90
2023-01-08T10:32:50.027Z,43.20
2023-01-08T10:35:21.557Z,43.10
2023-01-08T10:37:50.570Z,43.10
2023-01-08T10:40:25.421Z,43.20
2023-01-08T10:42:53.694Z,43.30
2023-01-08T10:45:22.665Z,43.20
2023-01-08T10:47:52.453Z,43.20
2023-01-08T10:50:23.533Z,43.20
2023-01-08T10:52:55.170Z,43.10
2023-01-08T10:55:25.065Z,43.00
2023-01-08T10:57:59.581Z,42.90
2023-01-08T11:00:28.939Z,42.80
2023-01-08T11:02:58.331Z,42.80
2023-01-08T11:05:35.283Z,42.70
2023-01-08T11:08:05.823Z,42.50
2023-01-08T11:10:34.056Z,42.50
2023-01-08T11:13:04.538Z,42.40
2023-01-08T11:15:34.245Z,42.30
2023-01-08T11:18:12.538Z,42.20
2023-01-08T11:20:42.232Z,42.20
2023-01-08T11:23:19.652Z,42.00
2023-01-08T11:25:53.457Z,42.00
2023-01-08T11:28:25.581Z,42.60
2023-01-08T11:30:56.023Z,41.90
2023-01-08T11:33:24.845Z,41.90
2023-01-08T11:35:57.838Z,41.90
2023-01-08T11:38:25.799Z,41.90
2023-01-08T11:40:56.334Z,41.90
2023-01-08T11:43:30.687Z,41.80
2023-01-08T11:46:10.444Z,41.80
2023-01-08T11:48:51.966Z,41.70
2023-01-08T11:51:47.976Z,41.70
2023-01-08T11:54:22.238Z,41.60
2023-01-08T11:57:01.982Z,41.60
2023-01-08T11:59:34.503Z,41.70
2023-01-08T12:02:05.262Z,41.70
2023-01-08T12:04:48.774Z,41.70
2023-01-08T12:07:20.377Z,41.70
2023-01-08T12:09:50.833Z,41.70
2023-01-08T12:12:25.392Z,41.70
2023-01-08T12:15:03.305Z,41.60
2023-01-08T12:17:46.549Z,41.60
2023-01-08T12:20:20.635Z,41.60
2023-01-08T12:22:53.487Z,41.40
2023-01-08T12:25:57.200Z,41.40
2023-01-08T12:28:40.755Z,41.40
2023-01-08T12:31:19.801Z,41.40
2023-01-08T12:33:49.809Z,41.40
2023-01-08T12:36:19.573Z,41.10
2023-01-08T12:38:52.471Z,41.40
2023-01-08T12:41:20.881Z,41.40
2023-01-08T12:43:52.342Z,41.40
2023-01-08T12:46:20.553Z,41.40
2023-01-08T12:48:51.776Z,41.30
2023-01-08T12:51:21.805Z,41.30
2023-01-08T12:53:56.633Z,41.20
2023-01-08T12:56:27.696Z,41.10
2023-01-08T12:59:04.902Z,41.00
2023-01-08T13:01:36.941Z,40.90
2023-01-08T13:04:06.155Z,40.80
2023-01-08T13:06:34.258Z,40.80
2023-01-08T13:09:03.631Z,40.80
2023-01-08T13:11:33.249Z,40.80
2023-01-08T13:14:02.972Z,40.80
2023-01-08T13:16:31.870Z,40.90
2023-01-08T13:19:00.523Z,41.10
2023-01-08T13:21:33.139Z,41.20
2023-01-08T13:24:03.830Z,41.40
2023-01-08T13:26:33.238Z,41.50
2023-01-08T13:29:37.588Z,41.80
2023-01-08T13:32:06.320Z,42.00
2023-01-08T13:34:38.888Z,42.10
2023-01-08T13:37:11.413Z,42.30
2023-01-08T13:39:45.849Z,42.30
2023-01-08T13:42:24.829Z,43.00
2023-01-08T13:44:53.397Z,42.40
2023-01-08T13:47:26.966Z,42.40
2023-01-08T13:49:55.078Z,42.40
2023-01-08T13:52:33.747Z,42.30
2023-01-08T13:55:04.730Z,42.30
2023-01-08T13:57:37.115Z,42.30
2023-01-08T14:00:06.964Z,42.10
2023-01-08T14:02:35.868Z,42.00
2023-01-08T14:05:04.815Z,41.90
2023-01-08T14:07:32.803Z,41.80
2023-01-08T14:10:09.728Z,41.70
2023-01-08T14:12:37.733Z,41.60
2023-01-08T14:15:09.972Z,41.60
2023-01-08T14:17:37.984Z,41.60
2023-01-08T14:20:10.893Z,41.60
2023-01-08T14:22:38.907Z,41.60
2023-01-08T14:25:09.275Z,41.70
2023-01-08T14:27:37.743Z,41.70
2023-01-08T14:30:16.334Z,41.70
2023-01-08T14:32:44.789Z,41.70
2023-01-08T14:35:16.278Z,41.80
2023-01-08T14:37:45.050Z,41.80
2023-01-08T14:40:17.741Z,41.70
2023-01-08T14:42:50.100Z,41.70
2023-01-08T14:45:20.259Z,41.60
2023-01-08T14:47:49.619Z,44.80
2023-01-08T14:50:19.883Z,44.30
2023-01-08T14:52:47.919Z,41.30
2023-01-08T14:55:19.019Z,41.20
2023-01-08T14:57:47.312Z,43.00
2023-01-08T15:00:19.436Z,48.40
2023-01-08T15:02:47.608Z,46.90
2023-01-08T15:05:18.136Z,41.00
2023-01-08T15:07:56.708Z,41.00
2023-01-08T15:10:33.422Z,41.10
2023-01-08T15:13:04.057Z,41.10
2023-01-08T15:15:32.095Z,41.20
2023-01-08T15:18:00.201Z,41.20
2023-01-08T15:20:30.468Z,41.40
2023-01-08T15:22:58.458Z,41.50
2023-01-08T15:25:29.247Z,41.60
2023-01-08T15:27:59.778Z,42.70
2023-01-08T15:30:31.199Z,45.60
2023-01-08T15:33:08.729Z,46.10
2023-01-08T15:35:36.687Z,45.00
2023-01-08T15:38:04.665Z,45.20
2023-01-08T15:40:34.321Z,47.20
2023-01-08T15:43:10.995Z,41.70
2023-01-08T15:45:40.232Z,41.70
2023-01-08T15:48:08.556Z,41.60
2023-01-08T15:50:38.712Z,41.50
2023-01-08T15:53:07.815Z,41.40
2023-01-08T15:55:37.665Z,41.40
2023-01-08T15:58:05.680Z,41.30
2023-01-08T16:00:34.088Z,41.30
2023-01-08T16:03:03.256Z,41.30
2023-01-08T16:05:32.882Z,41.30
2023-01-08T16:08:01.019Z,42.00
2023-01-08T16:10:29.292Z,45.00
2023-01-08T16:12:58.697Z,41.30
2023-01-08T16:15:28.300Z,41.40
2023-01-08T16:17:56.327Z,41.40
2023-01-08T16:20:24.404Z,41.50
2023-01-08T16:22:52.634Z,43.30
2023-01-08T16:25:20.803Z,41.90
2023-01-08T16:27:48.844Z,40.80
2023-01-08T16:30:18.851Z,41.50
2023-01-08T16:32:51.077Z,41.50
2023-01-08T16:35:19.239Z,41.60
2023-01-08T16:37:47.229Z,41.60
2023-01-08T16:40:15.615Z,41.70
2023-01-08T16:42:43.753Z,41.70
2023-01-08T16:45:11.978Z,41.80
2023-01-08T16:47:41.347Z,41.80
2023-01-08T16:50:11.044Z,41.90
2023-01-08T16:52:39.189Z,41.90
2023-01-08T16:55:08.175Z,41.90
2023-01-08T16:57:36.483Z,42.00
2023-01-08T17:00:04.915Z,42.00
2023-01-08T17:02:32.865Z,42.00
2023-01-08T17:05:02.377Z,42.00
2023-01-08T17:07:30.530Z,42.00
2023-01-08T17:09:58.579Z,42.00
2023-01-08T17:12:26.890Z,42.10
2023-01-08T17:14:54.962Z,42.10
2023-01-08T17:17:22.879Z,42.10
2023-01-08T17:19:50.997Z,42.10
2023-01-08T17:22:20.387Z,42.10
2023-01-08T17:24:48.381Z,42.10
2023-01-08T17:27:16.515Z,42.10
2023-01-08T17:29:44.505Z,42.10
2023-01-08T17:32:14.177Z,42.10
2023-01-08T17:34:42.177Z,42.10
2023-01-08T17:37:10.205Z,42.10
2023-01-08T17:39:39.537Z,42.10
2023-01-08T17:42:25.956Z,41.90
2023-01-08T17:44:53.955Z,41.80
2023-01-08T17:47:21.950Z,41.70
2023-01-08T17:49:51.195Z,41.70
2023-01-08T17:52:19.390Z,41.70
2023-01-08T17:54:50.255Z,41.60
2023-01-08T17:57:18.358Z,41.50
2023-01-08T17:59:46.356Z,41.50
2023-01-08T18:02:16.193Z,41.50
2023-01-08T18:04:45.549Z,41.40
2023-01-08T18:07:13.851Z,41.40
2023-01-08T18:09:42.194Z,41.30
2023-01-08T18:12:11.598Z,41.30
2023-01-08T18:14:41.448Z,41.30
2023-01-08T18:17:09.455Z,41.30
2023-01-08T18:19:37.438Z,41.90
2023-01-08T18:22:05.446Z,41.20
2023-01-08T18:24:34.660Z,41.20
2023-01-08T18:27:02.686Z,41.20
2023-01-08T18:29:32.030Z,41.20
2023-01-08T18:32:00.294Z,41.20
2023-01-08T18:34:28.343Z,41.20
2023-01-08T18:36:56.353Z,41.10
2023-01-08T18:39:26.833Z,41.10
2023-01-08T18:42:12.161Z,41.20
2023-01-08T18:44:41.582Z,41.10
2023-01-08T18:47:10.589Z,41.00
2023-01-08T18:49:38.702Z,41.10
2023-01-08T18:52:06.787Z,41.20
2023-01-08T18:54:35.515Z,41.20
2023-01-08T18:57:03.544Z,41.30
2023-01-08T18:59:31.679Z,41.20
2023-01-08T19:02:01.614Z,41.20
2023-01-08T19:04:29.694Z,41.20
2023-01-08T19:06:57.962Z,41.10
2023-01-08T19:09:26.062Z,41.00
2023-01-08T19:11:54.034Z,41.00
2023-01-08T19:14:22.072Z,40.80
2023-01-08T19:16:51.531Z,40.70
2023-01-08T19:19:21.017Z,40.60
2023-01-08T19:21:49.362Z,40.50
2023-01-08T19:24:17.380Z,40.40
2023-01-08T19:26:45.487Z,40.30
2023-01-08T19:29:13.790Z,40.90
2023-01-08T19:31:41.831Z,40.30
2023-01-08T19:34:10.956Z,40.20
2023-01-08T19:36:42.347Z,40.20
2023-01-08T19:39:11.651Z,40.20
2023-01-08T19:41:57.465Z,40.20
2023-01-08T19:44:25.519Z,40.30
2023-01-08T19:46:54.490Z,40.30
2023-01-08T19:49:23.637Z,40.30
2023-01-08T19:51:53.469Z,40.30
2023-01-08T19:54:23.913Z,40.40
2023-01-08T19:56:52.023Z,40.40
2023-01-08T19:59:20.106Z,40.40
2023-01-08T20:01:48.390Z,40.30
2023-01-08T20:04:16.536Z,40.40
2023-01-08T20:06:44.663Z,40.30
2023-01-08T20:09:14.529Z,40.40
2023-01-08T20:11:42.517Z,40.30
2023-01-08T20:14:10.657Z,40.40
2023-01-08T20:16:39.050Z,40.30
2023-01-08T20:19:07.120Z,40.40
2023-01-08T20:21:35.292Z,40.40
2023-01-08T20:24:06.081Z,40.40
2023-01-08T20:26:36.100Z,40.50
2023-01-08T20:29:04.438Z,40.50
2023-01-08T20:31:33.042Z,40.50
2023-01-08T20:34:01.878Z,40.50
2023-01-08T20:36:31.641Z,40.60
2023-01-08T20:39:00.546Z,40.60
2023-01-08T20:41:28.573Z,40.60
2023-01-08T20:43:57.940Z,40.60
2023-01-08T20:46:28.327Z,41.20
2023-01-08T20:48:56.530Z,40.60
2023-01-08T20:51:24.800Z,40.80
2023-01-08T20:53:53.123Z,41.00
2023-01-08T20:56:21.102Z,41.10
2023-01-08T20:58:49.390Z,41.20
2023-01-08T21:01:19.566Z,41.30
2023-01-08T21:03:47.908Z,41.30
2023-01-08T21:06:16.901Z,41.30
2023-01-08T21:08:46.082Z,41.30
2023-01-08T21:11:14.534Z,41.20
2023-01-08T21:13:42.955Z,41.20
2023-01-08T21:16:12.889Z,41.20
2023-01-08T21:18:44.201Z,41.20
2023-01-08T21:21:12.859Z,41.30
2023-01-08T21:23:40.861Z,41.30
2023-01-08T21:26:10.687Z,41.40
2023-01-08T21:28:38.671Z,41.50
2023-01-08T21:31:07.229Z,41.50
2023-01-08T21:33:35.600Z,41.60
2023-01-08T21:36:09.261Z,41.60
2023-01-08T21:38:37.620Z,41.70
2023-01-08T21:41:06.727Z,41.70
2023-01-08T21:43:52.439Z,41.70
2023-01-08T21:46:20.430Z,41.70
2023-01-08T21:48:50.074Z,41.70
2023-01-08T21:51:36.810Z,41.70
2023-01-08T21:54:04.925Z,41.70
2023-01-08T21:56:32.934Z,41.70
2023-01-08T21:59:01.070Z,41.70
2023-01-08T22:01:29.297Z,41.70
2023-01-08T22:03:57.363Z,41.70
2023-01-08T22:06:26.771Z,41.70
2023-01-08T22:08:56.935Z,41.70
2023-01-08T22:11:25.033Z,41.70
2023-01-08T22:13:53.285Z,41.70
2023-01-08T22:16:21.261Z,41.70
2023-01-08T22:18:49.335Z,41.70
2023-01-08T22:21:17.498Z,41.70
2023-01-08T22:23:46.869Z,41.60
2023-01-08T22:26:14.918Z,41.60
2023-01-08T22:28:43.182Z,41.60
2023-01-08T22:31:12.803Z,41.70
2023-01-08T22:33:40.853Z,41.70
2023-01-08T22:36:10.891Z,41.70
2023-01-08T22:38:38.876Z,41.70
2023-01-08T22:41:12.017Z,41.70
2023-01-08T22:43:39.992Z,41.70
2023-01-08T22:46:08.095Z,41.70
2023-01-08T22:48:37.422Z,41.80
2023-01-08T22:51:05.599Z,41.70
2023-01-08T22:53:33.562Z,41.70
2023-01-08T22:56:01.588Z,41.70
2023-01-08T22:58:30.905Z,41.70
2023-01-08T23:00:58.880Z,41.80
2023-01-08T23:03:29.214Z,41.80
2023-01-08T23:06:02.357Z,41.70
2023-01-08T23:08:30.384Z,41.70
2023-01-08T23:10:58.491Z,41.80
2023-01-08T23:13:26.484Z,41.70
2023-01-08T23:15:56.130Z,41.70
2023-01-08T23:18:24.103Z,41.70
2023-01-08T23:20:52.062Z,41.80
2023-01-08T23:23:20.165Z,41.80
2023-01-08T23:25:48.075Z,41.80
2023-01-08T23:28:16.013Z,41.60
2023-01-08T23:30:43.979Z,41.60
2023-01-08T23:33:13.351Z,41.50
2023-01-08T23:35:42.623Z,41.50
2023-01-08T23:38:10.621Z,41.40
2023-01-08T23:40:38.612Z,41.40
2023-01-08T23:43:06.607Z,41.40
2023-01-08T23:45:36.370Z,41.40
2023-01-08T23:48:04.426Z,41.40
2023-01-08T23:50:33.784Z,41.40
2023-01-08T23:53:01.849Z,41.40
2023-01-08T23:55:29.856Z,41.40
2023-01-08T23:57:57.861Z,41.50
